createdAt,value
2019-02-12T00:00:27.684Z,4.90
2019-02-12T00:01:27.671Z,4.90
2019-02-12T00:02:27.661Z,4.90
2019-02-12T00:03:27.653Z,4.91
2019-02-12T00:04:27.640Z,4.90
2019-02-12T00:05:27.634Z,4.83
2019-02-12T00:06:27.651Z,4.90
2019-02-12T00:07:27.599Z,4.80
2019-02-12T00:08:27.590Z,4.69
2019-02-12T00:09:27.580Z,4.68
2019-02-12T00:10:27.567Z,4.67
2019-02-12T00:11:27.553Z,4.69
2019-02-12T00:12:27.540Z,4.71
2019-02-12T00:13:27.530Z,4.67
2019-02-12T00:14:27.519Z,4.74
2019-02-12T00:15:27.510Z,4.71
2019-02-12T00:16:27.499Z,4.61
2019-02-12T00:17:27.483Z,4.69
2019-02-12T00:18:27.475Z,4.75
2019-02-12T00:19:27.467Z,4.71
2019-02-12T00:20:27.443Z,4.74
2019-02-12T00:21:27.434Z,4.80
2019-02-12T00:22:27.425Z,4.83
2019-02-12T00:23:27.415Z,4.86
2019-02-12T00:24:27.405Z,4.90
2019-02-12T00:25:27.387Z,4.90
2019-02-12T00:26:27.376Z,4.77
2019-02-12T00:27:27.368Z,4.87
2019-02-12T00:28:27.354Z,4.65
2019-02-12T00:29:27.342Z,4.65
2019-02-12T00:30:27.330Z,4.69
2019-02-12T00:31:27.314Z,4.56
2019-02-12T00:32:27.301Z,4.61
2019-02-12T00:33:27.288Z,4.56
2019-02-12T00:34:27.279Z,4.57
2019-02-12T00:35:27.272Z,4.51
2019-02-12T00:36:27.260Z,4.56
2019-02-12T00:37:27.249Z,4.49
2019-02-12T00:38:27.238Z,4.43
2019-02-12T00:39:27.221Z,4.46
2019-02-12T00:40:27.208Z,4.43
2019-02-12T00:41:27.200Z,4.34
2019-02-12T00:42:27.187Z,4.44
2019-02-12T00:43:27.172Z,4.29
2019-02-12T00:44:27.159Z,4.31
2019-02-12T00:45:27.148Z,4.25
2019-02-12T00:46:27.133Z,4.34
2019-02-12T00:47:27.126Z,4.28
2019-02-12T00:48:27.113Z,4.36
2019-02-12T00:49:27.108Z,4.31
2019-02-12T00:50:27.091Z,4.29
2019-02-12T00:51:27.072Z,4.29
2019-02-12T00:52:27.062Z,4.29
2019-02-12T00:53:27.051Z,4.32
2019-02-12T00:54:27.039Z,4.17
2019-02-12T00:55:27.030Z,4.10
2019-02-12T00:56:27.018Z,4.04
2019-02-12T00:57:27.002Z,4.02
2019-02-12T00:58:26.988Z,4.06
2019-02-12T00:59:26.981Z,4.04
2019-02-12T01:00:26.968Z,3.99
2019-02-12T01:01:26.955Z,3.95
2019-02-12T01:02:26.942Z,3.89
2019-02-12T01:03:26.927Z,3.78
2019-02-12T01:04:26.912Z,3.77
2019-02-12T01:05:26.900Z,3.99
2019-02-12T01:06:26.889Z,3.93
2019-02-12T01:07:27.000Z,3.89
2019-02-12T01:08:26.867Z,3.92
2019-02-12T01:09:26.858Z,3.86
2019-02-12T01:10:26.847Z,3.81
2019-02-12T01:11:26.827Z,3.81
2019-02-12T01:12:26.818Z,3.82
2019-02-12T01:13:26.808Z,3.77
2019-02-12T01:14:26.796Z,3.74
2019-02-12T01:15:26.779Z,3.82
2019-02-12T01:16:26.766Z,3.84
2019-02-12T01:17:26.750Z,3.77
2019-02-12T01:18:26.740Z,3.75
2019-02-12T01:19:26.731Z,3.75
2019-02-12T01:20:26.717Z,3.78
2019-02-12T01:21:26.711Z,3.72
2019-02-12T01:22:26.695Z,3.70
2019-02-12T01:23:26.679Z,3.70
2019-02-12T01:24:26.665Z,3.56
2019-02-12T01:25:26.650Z,3.64
2019-02-12T01:26:26.637Z,3.50
2019-02-12T01:27:26.629Z,3.52
2019-02-12T01:28:26.619Z,3.57
2019-02-12T01:29:26.600Z,3.57
2019-02-12T01:30:26.588Z,3.52
2019-02-12T01:31:26.580Z,3.53
2019-02-12T01:32:26.566Z,3.41
2019-02-12T01:33:26.556Z,3.39
2019-02-12T01:34:26.545Z,3.31
2019-02-12T01:35:26.526Z,3.31
2019-02-12T01:36:26.514Z,3.39
2019-02-12T01:37:26.501Z,3.31
2019-02-12T01:38:26.488Z,3.33
2019-02-12T01:39:26.481Z,3.31
2019-02-12T01:40:26.468Z,3.39
2019-02-12T01:41:26.453Z,3.25
2019-02-12T01:42:26.440Z,3.44
2019-02-12T01:43:26.422Z,3.31
2019-02-12T01:44:26.408Z,3.39
2019-02-12T01:45:26.402Z,3.34
2019-02-12T01:46:26.392Z,3.25
2019-02-12T01:47:26.375Z,3.17
2019-02-12T01:48:26.362Z,3.22
2019-02-12T01:49:26.353Z,3.26
2019-02-12T01:50:26.336Z,3.33
2019-02-12T01:51:34.783Z,3.35
2019-02-12T01:52:26.313Z,3.33
2019-02-12T01:53:26.302Z,3.31
2019-02-12T01:54:26.295Z,3.26
2019-02-12T01:55:26.272Z,3.16
2019-02-12T01:56:26.258Z,3.13
2019-02-12T01:57:26.242Z,3.19
2019-02-12T01:58:26.232Z,3.17
2019-02-12T01:59:26.225Z,3.08
2019-02-12T02:00:26.209Z,3.13
2019-02-12T02:01:26.192Z,3.13
2019-02-12T02:02:26.179Z,3.02
2019-02-12T02:03:26.185Z,3.05
2019-02-12T02:04:26.164Z,3.08
2019-02-12T02:05:26.245Z,3.10
2019-02-12T02:06:26.136Z,3.07
2019-02-12T02:07:26.118Z,3.07
2019-02-12T02:08:26.104Z,3.04
2019-02-12T02:09:26.092Z,2.99
2019-02-12T02:10:26.083Z,3.04
2019-02-12T02:11:26.071Z,3.05
2019-02-12T02:12:26.059Z,3.10
2019-02-12T02:13:26.042Z,3.07
2019-02-12T02:14:26.035Z,3.12
2019-02-12T02:15:26.011Z,3.08
2019-02-12T02:16:25.998Z,3.05
2019-02-12T02:17:25.992Z,3.07
2019-02-12T02:18:25.978Z,2.97
2019-02-12T02:19:25.962Z,3.08
2019-02-12T02:20:25.947Z,3.05
2019-02-12T02:21:25.939Z,3.10
2019-02-12T02:22:25.924Z,3.01
2019-02-12T02:23:25.969Z,3.02
2019-02-12T02:24:25.903Z,2.99
2019-02-12T02:25:25.887Z,3.02
2019-02-12T02:26:25.873Z,2.89
2019-02-12T02:27:25.855Z,2.98
2019-02-12T02:28:25.842Z,2.98
2019-02-12T02:29:25.832Z,2.99
2019-02-12T02:30:25.821Z,2.98
2019-02-12T02:31:25.812Z,3.07
2019-02-12T02:32:25.800Z,3.07
2019-02-12T02:33:25.782Z,3.05
2019-02-12T02:34:25.772Z,3.20
2019-02-12T02:35:25.760Z,3.17
2019-02-12T02:36:25.748Z,3.16
2019-02-12T02:37:25.734Z,3.26
2019-02-12T02:38:25.720Z,3.22
2019-02-12T02:39:25.703Z,3.33
2019-02-12T02:40:25.687Z,3.41
2019-02-12T02:41:25.676Z,3.33
2019-02-12T02:42:25.664Z,3.39
2019-02-12T02:43:25.655Z,3.39
2019-02-12T02:44:25.643Z,3.46
2019-02-12T02:45:25.632Z,3.53
2019-02-12T02:46:25.627Z,3.56
2019-02-12T02:47:25.604Z,3.56
2019-02-12T02:48:25.592Z,3.67
2019-02-12T02:49:25.604Z,3.70
2019-02-12T02:50:25.569Z,3.71
2019-02-12T02:51:25.555Z,3.75
2019-02-12T02:52:25.539Z,3.78
2019-02-12T02:53:25.526Z,3.82
2019-02-12T02:54:25.513Z,3.80
2019-02-12T02:55:25.505Z,3.82
2019-02-12T02:56:25.492Z,3.96
2019-02-12T02:57:25.479Z,3.84
2019-02-12T02:58:25.468Z,3.89
2019-02-12T02:59:25.475Z,3.84
2019-02-12T03:00:25.440Z,3.99
2019-02-12T03:01:25.427Z,4.00
2019-02-12T03:02:25.417Z,4.06
2019-02-12T03:03:25.409Z,4.04
2019-02-12T03:04:25.443Z,4.07
2019-02-12T03:05:25.377Z,4.04
2019-02-12T03:06:25.366Z,4.06
2019-02-12T03:07:25.358Z,3.93
2019-02-12T03:08:25.346Z,3.95
2019-02-12T03:09:25.331Z,3.96
2019-02-12T03:10:25.321Z,4.00
2019-02-12T03:11:25.305Z,3.84
2019-02-12T03:12:25.290Z,3.90
2019-02-12T03:13:25.279Z,3.92
2019-02-12T03:14:25.265Z,3.82
2019-02-12T03:15:25.257Z,3.99
2019-02-12T03:16:25.246Z,3.96
2019-02-12T03:17:25.235Z,3.99
2019-02-12T03:18:25.222Z,3.95
2019-02-12T03:19:25.209Z,4.06
2019-02-12T03:20:25.193Z,3.95
2019-02-12T03:21:25.185Z,3.95
2019-02-12T03:22:25.174Z,3.98
2019-02-12T03:23:25.157Z,4.07
2019-02-12T03:24:25.144Z,4.04
2019-02-12T03:25:25.129Z,4.08
2019-02-12T03:26:25.117Z,4.10
2019-02-12T03:27:25.109Z,4.10
2019-02-12T03:28:25.098Z,4.08
2019-02-12T03:29:25.091Z,4.13
2019-02-12T03:30:25.075Z,4.18
2019-02-12T03:31:25.060Z,4.11
2019-02-12T03:32:25.047Z,4.20
2019-02-12T03:33:25.035Z,4.18
2019-02-12T03:34:25.021Z,4.18
2019-02-12T03:35:25.015Z,4.17
2019-02-12T03:36:25.002Z,4.14
2019-02-12T03:37:24.988Z,4.04
2019-02-12T03:38:24.973Z,4.11
2019-02-12T03:39:24.972Z,4.07
2019-02-12T03:40:24.952Z,4.00
2019-02-12T03:41:24.938Z,3.96
2019-02-12T03:42:24.926Z,3.88
2019-02-12T03:43:24.908Z,3.78
2019-02-12T03:44:24.895Z,3.77
2019-02-12T03:45:24.887Z,3.78
2019-02-12T03:46:24.871Z,3.77
2019-02-12T03:47:24.865Z,3.77
2019-02-12T03:48:24.851Z,3.88
2019-02-12T03:49:24.841Z,3.80
2019-02-12T03:50:24.829Z,3.88
2019-02-12T03:51:24.814Z,3.78
2019-02-12T03:52:24.801Z,3.88
2019-02-12T03:53:24.791Z,3.82
2019-02-12T03:54:24.779Z,3.75
2019-02-12T03:55:24.762Z,3.74
2019-02-12T03:56:24.748Z,3.71
2019-02-12T03:57:24.737Z,3.71
2019-02-12T03:58:24.722Z,3.67
2019-02-12T03:59:24.717Z,3.64
2019-02-12T04:00:24.700Z,3.64
2019-02-12T04:01:24.688Z,3.59
2019-02-12T04:02:24.677Z,3.52
2019-02-12T04:03:24.658Z,3.50
2019-02-12T04:04:24.645Z,3.52
2019-02-12T04:05:24.636Z,3.52
2019-02-12T04:06:24.623Z,3.46
2019-02-12T04:07:24.614Z,3.46
2019-02-12T04:08:24.602Z,3.41
2019-02-12T04:09:24.586Z,3.39
2019-02-12T04:10:24.572Z,3.39
2019-02-12T04:11:24.566Z,3.37
2019-02-12T04:12:24.551Z,3.39
2019-02-12T04:13:24.537Z,3.34
2019-02-12T04:14:24.528Z,3.41
2019-02-12T04:15:24.517Z,3.31
2019-02-12T04:16:24.491Z,3.34
2019-02-12T04:17:24.480Z,3.33
2019-02-12T04:18:24.470Z,3.31
2019-02-12T04:19:24.460Z,3.30
2019-02-12T04:20:24.491Z,3.28
2019-02-12T04:21:24.436Z,3.12
2019-02-12T04:22:24.423Z,3.20
2019-02-12T04:23:24.406Z,3.16
2019-02-12T04:24:24.391Z,3.13
2019-02-12T04:25:24.383Z,3.16
2019-02-12T04:26:24.372Z,3.12
2019-02-12T04:27:24.353Z,3.08
2019-02-12T04:28:24.340Z,3.08
2019-02-12T04:29:24.323Z,3.16
2019-02-12T04:30:24.312Z,3.01
2019-02-12T04:31:24.306Z,3.01
2019-02-12T04:32:24.291Z,3.04
2019-02-12T04:33:24.280Z,3.12
2019-02-12T04:34:24.267Z,3.01
2019-02-12T04:35:24.251Z,3.07
2019-02-12T04:36:24.238Z,2.92
2019-02-12T04:37:24.223Z,2.94
2019-02-12T04:38:24.209Z,2.92
2019-02-12T04:39:24.203Z,2.97
2019-02-12T04:40:24.187Z,3.05
2019-02-12T04:41:24.170Z,2.87
2019-02-12T04:42:24.157Z,2.89
2019-02-12T04:43:24.146Z,2.86
2019-02-12T04:44:24.134Z,2.90
2019-02-12T04:45:24.123Z,2.97
2019-02-12T04:46:24.112Z,2.87
2019-02-12T04:47:24.093Z,2.87
2019-02-12T04:48:24.079Z,2.73
2019-02-12T04:49:24.067Z,2.71
2019-02-12T04:50:24.117Z,2.69
2019-02-12T04:51:24.046Z,2.63
2019-02-12T04:52:31.806Z,2.62
2019-02-12T04:53:24.022Z,2.63
2019-02-12T04:54:24.004Z,2.62
2019-02-12T04:55:23.985Z,2.65
2019-02-12T04:56:23.976Z,2.63
2019-02-12T04:57:23.964Z,2.65
2019-02-12T04:58:23.950Z,2.61
2019-02-12T04:59:23.931Z,2.51
2019-02-12T05:00:23.919Z,2.51
2019-02-12T05:01:23.909Z,2.58
2019-02-12T05:02:23.896Z,2.62
2019-02-12T05:03:23.887Z,2.55
2019-02-12T05:04:23.872Z,2.55
2019-02-12T05:05:23.864Z,2.58
2019-02-12T05:06:23.848Z,2.50
2019-02-12T05:07:23.828Z,2.55
2019-02-12T05:08:23.819Z,2.53
2019-02-12T05:09:23.800Z,2.51
2019-02-12T05:10:23.789Z,2.51
2019-02-12T05:11:23.779Z,2.51
2019-02-12T05:12:23.764Z,2.48
2019-02-12T05:13:23.747Z,2.59
2019-02-12T05:14:23.745Z,2.55
2019-02-12T05:15:23.726Z,2.55
2019-02-12T05:16:23.712Z,2.59
2019-02-12T05:17:23.700Z,2.65
2019-02-12T05:18:23.687Z,2.62
2019-02-12T05:19:23.676Z,2.66
2019-02-12T05:20:23.656Z,2.59
2019-02-12T05:21:23.642Z,2.65
2019-02-12T05:22:23.631Z,2.58
2019-02-12T05:23:23.621Z,2.63
2019-02-12T05:24:23.606Z,2.68
2019-02-12T05:25:23.593Z,2.63
2019-02-12T05:26:23.580Z,2.65
2019-02-12T05:27:23.590Z,2.65
2019-02-12T05:28:23.548Z,2.76
2019-02-12T05:29:23.539Z,2.83
2019-02-12T05:30:23.525Z,2.83
2019-02-12T05:31:23.524Z,2.86
2019-02-12T05:32:23.497Z,2.89
2019-02-12T05:33:23.487Z,2.89
2019-02-12T05:34:23.475Z,2.98
2019-02-12T05:35:23.464Z,2.97
2019-02-12T05:36:23.450Z,2.98
2019-02-12T05:37:23.434Z,3.04
2019-02-12T05:38:23.423Z,3.05
2019-02-12T05:39:23.411Z,3.07
2019-02-12T05:40:23.391Z,3.02
2019-02-12T05:41:23.380Z,2.99
2019-02-12T05:42:23.367Z,2.99
2019-02-12T05:43:23.367Z,3.08
2019-02-12T05:44:23.345Z,3.10
2019-02-12T05:45:23.328Z,3.01
2019-02-12T05:46:23.315Z,2.99
2019-02-12T05:47:23.312Z,3.05
2019-02-12T05:48:23.319Z,3.01
2019-02-12T05:49:23.281Z,2.97
2019-02-12T05:50:23.265Z,2.98
2019-02-12T05:51:23.247Z,2.98
2019-02-12T05:52:23.235Z,2.89
2019-02-12T05:53:23.222Z,2.87
2019-02-12T05:54:23.208Z,2.86
2019-02-12T05:55:23.209Z,2.92
2019-02-12T05:56:23.187Z,2.86
2019-02-12T05:57:23.178Z,2.87
2019-02-12T05:58:23.164Z,2.86
2019-02-12T05:59:23.146Z,2.81
2019-02-12T06:00:23.132Z,2.77
2019-02-12T06:01:23.125Z,2.77
2019-02-12T06:02:23.115Z,2.74
2019-02-12T06:03:23.095Z,2.77
2019-02-12T06:04:23.081Z,2.73
2019-02-12T06:05:23.068Z,2.83
2019-02-12T06:06:23.052Z,2.84
2019-02-12T06:07:23.052Z,2.86
2019-02-12T06:08:23.030Z,2.83
2019-02-12T06:09:23.018Z,2.86
2019-02-12T06:10:23.005Z,2.84
2019-02-12T06:11:22.987Z,2.90
2019-02-12T06:12:22.976Z,2.84
2019-02-12T06:13:22.961Z,2.87
2019-02-12T06:14:22.950Z,3.01
2019-02-12T06:15:22.942Z,2.94
2019-02-12T06:16:22.927Z,2.84
2019-02-12T06:17:22.911Z,3.01
2019-02-12T06:18:22.897Z,2.89
2019-02-12T06:19:22.890Z,2.83
2019-02-12T06:20:22.874Z,2.89
2019-02-12T06:21:22.859Z,2.87
2019-02-12T06:22:22.845Z,2.89
2019-02-12T06:23:22.829Z,2.83
2019-02-12T06:24:22.814Z,2.92
2019-02-12T06:25:22.803Z,2.86
2019-02-12T06:26:22.789Z,2.92
2019-02-12T06:27:22.785Z,2.84
2019-02-12T06:28:22.767Z,2.89
2019-02-12T06:29:22.758Z,2.87
2019-02-12T06:30:22.746Z,2.92
2019-02-12T06:31:22.728Z,2.97
2019-02-12T06:32:22.713Z,2.89
2019-02-12T06:33:22.707Z,2.97
2019-02-12T06:34:22.701Z,2.89
2019-02-12T06:35:22.674Z,2.90
2019-02-12T06:36:22.661Z,2.90
2019-02-12T06:37:22.644Z,2.92
2019-02-12T06:38:22.631Z,2.99
2019-02-12T06:39:22.623Z,3.02
2019-02-12T06:40:22.610Z,2.99
2019-02-12T06:41:22.599Z,3.01
2019-02-12T06:42:22.586Z,3.02
2019-02-12T06:43:22.572Z,3.04
2019-02-12T06:44:22.557Z,3.07
2019-02-12T06:45:22.539Z,3.04
2019-02-12T06:46:22.528Z,2.99
2019-02-12T06:47:22.520Z,3.04
2019-02-12T06:48:22.508Z,3.05
2019-02-12T06:49:22.487Z,2.95
2019-02-12T06:50:22.475Z,3.04
2019-02-12T06:51:22.466Z,3.04
2019-02-12T06:52:22.451Z,3.08
2019-02-12T06:53:22.444Z,3.08
2019-02-12T06:54:22.428Z,3.01
2019-02-12T06:55:22.412Z,3.04
2019-02-12T06:56:22.398Z,3.10
2019-02-12T06:57:22.384Z,3.17
2019-02-12T06:58:22.372Z,3.02
2019-02-12T06:59:22.364Z,3.08
2019-02-12T07:00:22.350Z,3.20
2019-02-12T07:01:22.334Z,3.22
2019-02-12T07:02:22.323Z,3.05
2019-02-12T07:03:22.308Z,3.15
2019-02-12T07:04:22.291Z,3.15
2019-02-12T07:05:22.284Z,3.30
2019-02-12T07:06:22.272Z,3.28
2019-02-12T07:07:22.253Z,3.26
2019-02-12T07:08:22.240Z,3.23
2019-02-12T07:09:22.232Z,3.23
2019-02-12T07:10:22.217Z,3.19
2019-02-12T07:11:22.209Z,3.28
2019-02-12T07:12:22.194Z,3.23
2019-02-12T07:13:22.182Z,3.22
2019-02-12T07:14:22.169Z,3.23
2019-02-12T07:15:22.152Z,3.30
2019-02-12T07:16:22.139Z,3.33
2019-02-12T07:17:22.125Z,3.31
2019-02-12T07:18:22.110Z,3.41
2019-02-12T07:19:22.103Z,3.54
2019-02-12T07:20:22.089Z,3.59
2019-02-12T07:21:22.071Z,3.67
2019-02-12T07:22:22.058Z,3.67
2019-02-12T07:23:22.053Z,3.78
2019-02-12T07:24:22.041Z,3.78
2019-02-12T07:25:22.027Z,3.82
2019-02-12T07:26:22.019Z,3.84
2019-02-12T07:27:21.998Z,3.92
2019-02-12T07:28:21.986Z,3.98
2019-02-12T07:29:21.973Z,3.98
2019-02-12T07:30:21.960Z,3.98
2019-02-12T07:31:21.958Z,4.02
2019-02-12T07:32:21.940Z,4.20
2019-02-12T07:33:21.926Z,4.17
2019-02-12T07:34:21.923Z,4.29
2019-02-12T07:35:21.909Z,4.35
2019-02-12T07:36:21.882Z,4.29
2019-02-12T07:37:21.876Z,4.43
2019-02-12T07:38:21.866Z,4.46
2019-02-12T07:39:21.846Z,4.49
2019-02-12T07:40:21.837Z,4.42
2019-02-12T07:41:21.824Z,4.53
2019-02-12T07:42:21.817Z,4.47
2019-02-12T07:43:21.808Z,4.51
2019-02-12T07:44:21.794Z,4.54
2019-02-12T07:45:21.775Z,4.62
2019-02-12T07:46:21.764Z,4.75
2019-02-12T07:47:21.842Z,4.72
2019-02-12T07:48:21.748Z,4.86
2019-02-12T07:49:21.735Z,4.79
2019-02-12T07:50:21.723Z,4.94
2019-02-12T07:51:21.705Z,4.79
2019-02-12T07:52:21.694Z,4.88
2019-02-12T07:53:30.650Z,4.80
2019-02-12T07:54:21.676Z,4.93
2019-02-12T07:55:21.660Z,4.96
2019-02-12T07:56:21.647Z,4.87
2019-02-12T07:57:21.634Z,4.86
2019-02-12T07:58:21.622Z,4.88
2019-02-12T07:59:21.615Z,4.86
2019-02-12T08:00:21.603Z,4.87
2019-02-12T08:01:21.591Z,4.94
2019-02-12T08:02:21.582Z,4.97
2019-02-12T08:03:21.563Z,4.83
2019-02-12T08:04:21.552Z,4.83
2019-02-12T08:05:21.541Z,4.91
2019-02-12T08:06:21.531Z,4.88
2019-02-12T08:07:21.529Z,4.87
2019-02-12T08:08:21.513Z,4.74
2019-02-12T08:09:21.496Z,4.65
2019-02-12T08:10:21.489Z,4.71
2019-02-12T08:11:21.486Z,4.71
2019-02-12T08:12:21.464Z,4.79
2019-02-12T08:13:21.452Z,4.80
2019-02-12T08:14:21.443Z,4.71
2019-02-12T08:15:21.424Z,4.71
2019-02-12T08:16:21.414Z,4.75
2019-02-12T08:17:21.402Z,4.84
2019-02-12T08:18:21.393Z,4.86
2019-02-12T08:19:21.384Z,4.91
2019-02-12T08:20:21.372Z,4.97
2019-02-12T08:21:21.369Z,4.91
2019-02-12T08:22:21.353Z,4.99
2019-02-12T08:23:21.337Z,5.08
2019-02-12T08:24:21.325Z,5.05
2019-02-12T08:25:21.316Z,5.12
2019-02-12T08:26:21.308Z,5.08
2019-02-12T08:27:21.292Z,5.11
2019-02-12T08:28:21.278Z,5.15
2019-02-12T08:29:21.263Z,5.22
2019-02-12T08:30:21.254Z,5.19
2019-02-12T08:31:21.247Z,5.22
2019-02-12T08:32:21.234Z,5.22
2019-02-12T08:33:21.228Z,5.20
2019-02-12T08:34:21.211Z,5.19
2019-02-12T08:35:21.194Z,5.26
2019-02-12T08:36:21.183Z,5.26
2019-02-12T08:37:21.175Z,5.33
2019-02-12T08:38:21.163Z,5.24
2019-02-12T08:39:21.159Z,5.23
2019-02-12T08:40:21.144Z,5.37
2019-02-12T08:41:21.129Z,5.24
2019-02-12T08:42:21.121Z,5.41
2019-02-12T08:43:21.115Z,5.40
2019-02-12T08:44:21.099Z,5.38
2019-02-12T08:45:21.087Z,5.44
2019-02-12T08:46:21.074Z,5.55
2019-02-12T08:47:21.059Z,5.63
2019-02-12T08:48:21.049Z,5.58
2019-02-12T08:49:21.039Z,5.70
2019-02-12T08:50:21.027Z,5.73
2019-02-12T08:51:21.020Z,5.80
2019-02-12T08:52:21.012Z,5.92
2019-02-12T08:53:20.995Z,5.99
2019-02-12T08:54:20.986Z,5.95
2019-02-12T08:55:20.969Z,6.06
2019-02-12T08:56:20.958Z,6.11
2019-02-12T08:57:20.952Z,6.10
2019-02-12T08:58:20.941Z,6.06
2019-02-12T08:59:20.925Z,6.27
2019-02-12T09:00:20.911Z,6.35
2019-02-12T09:01:20.909Z,6.28
2019-02-12T09:02:20.893Z,6.45
2019-02-12T09:03:20.887Z,6.50
2019-02-12T09:04:20.876Z,6.51
2019-02-12T09:05:20.865Z,6.57
2019-02-12T09:06:20.855Z,6.68
2019-02-12T09:07:20.841Z,6.57
2019-02-12T09:08:20.832Z,6.64
2019-02-12T09:09:20.816Z,6.60
2019-02-12T09:10:20.805Z,6.65
2019-02-12T09:11:20.801Z,6.58
2019-02-12T09:12:20.788Z,6.58
2019-02-12T09:13:20.773Z,6.64
2019-02-12T09:14:20.764Z,6.60
2019-02-12T09:15:20.758Z,6.51
2019-02-12T09:16:20.746Z,6.54
2019-02-12T09:17:20.739Z,6.65
2019-02-12T09:18:20.733Z,6.63
2019-02-12T09:19:20.717Z,6.63
2019-02-12T09:20:20.708Z,6.64
2019-02-12T09:21:20.694Z,6.58
2019-02-12T09:22:20.685Z,6.58
2019-02-12T09:23:20.678Z,6.60
2019-02-12T09:24:20.665Z,6.53
2019-02-12T09:25:20.654Z,6.57
2019-02-12T09:26:20.645Z,6.72
2019-02-12T09:27:20.629Z,6.60
2019-02-12T09:28:20.618Z,6.69
2019-02-12T09:29:20.612Z,6.75
2019-02-12T09:30:20.601Z,6.90
2019-02-12T09:31:20.598Z,6.91
2019-02-12T09:32:20.577Z,6.90
2019-02-12T09:33:20.571Z,6.78
2019-02-12T09:34:20.560Z,6.73
2019-02-12T09:35:20.555Z,6.51
2019-02-12T09:36:20.543Z,6.54
2019-02-12T09:37:20.535Z,6.68
2019-02-12T09:38:20.524Z,6.53
2019-02-12T09:39:20.510Z,6.71
2019-02-12T09:40:20.498Z,6.69
2019-02-12T09:41:20.488Z,6.82
2019-02-12T09:42:20.475Z,6.90
2019-02-12T09:43:20.472Z,7.01
2019-02-12T09:44:20.460Z,7.14
2019-02-12T09:45:20.451Z,7.15
2019-02-12T09:46:20.437Z,7.29
2019-02-12T09:47:20.433Z,7.41
2019-02-12T09:48:20.421Z,7.44
2019-02-12T09:49:20.414Z,7.47
2019-02-12T09:50:20.406Z,7.60
2019-02-12T09:51:20.391Z,7.73
2019-02-12T09:52:20.382Z,7.88
2019-02-12T09:53:20.371Z,7.88
2019-02-12T09:54:20.361Z,7.86
2019-02-12T09:55:20.356Z,8.02
2019-02-12T09:56:20.345Z,8.10
2019-02-12T09:57:20.350Z,8.21
2019-02-12T09:58:20.329Z,8.29
2019-02-12T09:59:20.342Z,8.39
2019-02-12T10:00:20.306Z,8.46
2019-02-12T10:01:20.301Z,8.50
2019-02-12T10:02:20.300Z,8.63
2019-02-12T10:03:20.279Z,8.55
2019-02-12T10:04:20.268Z,8.64
2019-02-12T10:05:20.258Z,8.65
2019-02-12T10:06:22.885Z,8.65
2019-02-12T10:07:20.274Z,8.82
2019-02-12T10:08:20.237Z,8.88
2019-02-12T10:09:20.228Z,9.01
2019-02-12T10:10:20.220Z,8.97
2019-02-12T10:11:20.206Z,8.98
2019-02-12T10:12:20.198Z,9.15
2019-02-12T10:13:20.191Z,8.91
2019-02-12T10:14:20.182Z,8.98
2019-02-12T10:15:20.182Z,9.01
2019-02-12T10:16:20.174Z,9.06
2019-02-12T10:17:20.159Z,9.17
2019-02-12T10:18:20.150Z,9.27
2019-02-12T10:19:20.147Z,9.24
2019-02-12T10:20:20.137Z,9.40
2019-02-12T10:21:20.139Z,9.52
2019-02-12T10:22:20.123Z,9.50
2019-02-12T10:23:20.131Z,9.70
2019-02-12T10:24:20.139Z,9.77
2019-02-12T10:25:20.090Z,9.78
2019-02-12T10:26:20.083Z,9.74
2019-02-12T10:27:20.080Z,9.85
2019-02-12T10:28:20.075Z,9.92
2019-02-12T10:29:20.069Z,10.04
2019-02-12T10:30:20.058Z,9.92
2019-02-12T10:31:20.051Z,9.67
2019-02-12T10:32:20.040Z,9.38
2019-02-12T10:33:20.036Z,9.40
2019-02-12T10:34:20.027Z,8.96
2019-02-12T10:35:20.016Z,8.88
2019-02-12T10:36:20.011Z,8.94
2019-02-12T10:37:19.998Z,9.10
2019-02-12T10:38:19.990Z,9.20
2019-02-12T10:39:19.987Z,9.20
2019-02-12T10:40:19.983Z,9.24
2019-02-12T10:41:19.973Z,9.19
2019-02-12T10:42:19.971Z,9.20
2019-02-12T10:43:19.998Z,9.16
2019-02-12T10:44:19.945Z,9.08
2019-02-12T10:45:19.942Z,9.00
2019-02-12T10:46:19.934Z,8.88
2019-02-12T10:47:19.931Z,8.94
2019-02-12T10:48:19.927Z,8.96
2019-02-12T10:49:19.932Z,9.03
2019-02-12T10:50:19.907Z,9.10
2019-02-12T10:51:19.901Z,9.15
2019-02-12T10:52:19.897Z,9.17
2019-02-12T10:53:19.882Z,9.17
2019-02-12T10:54:27.640Z,9.22
2019-02-12T10:55:19.865Z,9.22
2019-02-12T10:56:19.857Z,9.30
2019-02-12T10:57:19.857Z,9.30
2019-02-12T10:58:19.843Z,9.37
2019-02-12T10:59:19.844Z,9.45
2019-02-12T11:00:19.832Z,9.49
2019-02-12T11:01:19.823Z,9.63
2019-02-12T11:02:19.815Z,9.71
2019-02-12T11:03:19.803Z,9.78
2019-02-12T11:04:19.797Z,9.77
2019-02-12T11:05:19.793Z,9.78
2019-02-12T11:06:19.786Z,9.80
2019-02-12T11:07:19.773Z,9.89
2019-02-12T11:08:19.767Z,10.07
2019-02-12T11:09:19.761Z,10.26
2019-02-12T11:10:19.755Z,10.31
2019-02-12T11:11:19.751Z,10.46
2019-02-12T11:12:19.744Z,10.52
2019-02-12T11:13:19.737Z,10.44
2019-02-12T11:14:19.732Z,10.60
2019-02-12T11:15:19.720Z,10.38
2019-02-12T11:16:19.712Z,10.25
2019-02-12T11:17:19.703Z,10.28
2019-02-12T11:18:19.697Z,9.95
2019-02-12T11:19:19.695Z,9.89
2019-02-12T11:20:19.688Z,9.96
2019-02-12T11:21:19.684Z,9.92
2019-02-12T11:22:19.669Z,9.73
2019-02-12T11:23:19.668Z,9.80
2019-02-12T11:24:19.662Z,9.70
2019-02-12T11:25:19.657Z,9.65
2019-02-12T11:26:19.654Z,9.62
2019-02-12T11:27:19.642Z,9.63
2019-02-12T11:28:19.632Z,9.52
2019-02-12T11:29:19.626Z,9.48
2019-02-12T11:30:19.620Z,9.38
2019-02-12T11:31:19.618Z,9.45
2019-02-12T11:32:19.609Z,9.48
2019-02-12T11:33:19.602Z,9.49
2019-02-12T11:34:19.595Z,9.58
2019-02-12T11:35:19.585Z,9.63
2019-02-12T11:36:19.576Z,9.59
2019-02-12T11:37:19.573Z,9.70
2019-02-12T11:38:19.568Z,9.58
2019-02-12T11:39:19.556Z,9.77
2019-02-12T11:40:19.549Z,9.77
2019-02-12T11:41:19.549Z,9.88
2019-02-12T11:42:19.537Z,9.93
2019-02-12T11:43:19.536Z,10.13
2019-02-12T11:44:19.527Z,10.13
2019-02-12T11:45:19.521Z,10.17
2019-02-12T11:46:19.516Z,10.25
2019-02-12T11:47:19.502Z,10.17
2019-02-12T11:48:19.495Z,10.25
2019-02-12T11:49:19.487Z,10.35
2019-02-12T11:50:19.480Z,10.35
2019-02-12T11:51:19.478Z,10.46
2019-02-12T11:52:19.470Z,10.44
2019-02-12T11:53:19.458Z,10.57
2019-02-12T11:54:19.451Z,10.57
2019-02-12T11:55:19.449Z,10.60
2019-02-12T11:56:19.442Z,10.73
2019-02-12T11:57:19.439Z,10.86
2019-02-12T11:58:19.431Z,10.83
2019-02-12T11:59:19.427Z,10.86
2019-02-12T12:00:19.412Z,10.86
2019-02-12T12:01:19.407Z,10.88
2019-02-12T12:02:19.401Z,10.90
2019-02-12T12:03:19.397Z,10.86
2019-02-12T12:04:19.392Z,10.65
2019-02-12T12:05:19.382Z,10.55
2019-02-12T12:06:19.374Z,10.63
2019-02-12T12:07:19.365Z,10.55
2019-02-12T12:08:19.357Z,10.58
2019-02-12T12:09:19.356Z,10.52
2019-02-12T12:10:19.349Z,10.62
2019-02-12T12:11:19.340Z,10.68
2019-02-12T12:12:19.329Z,10.68
2019-02-12T12:13:19.327Z,10.80
2019-02-12T12:14:19.321Z,10.87
2019-02-12T12:15:19.318Z,10.83
2019-02-12T12:16:19.312Z,10.90
2019-02-12T12:17:19.306Z,10.99
2019-02-12T12:18:19.299Z,11.09
2019-02-12T12:19:19.290Z,11.03
2019-02-12T12:20:19.283Z,11.16
2019-02-12T12:21:19.273Z,11.13
2019-02-12T12:22:19.266Z,11.20
2019-02-12T12:23:19.266Z,11.19
2019-02-12T12:24:19.267Z,11.19
2019-02-12T12:25:19.248Z,11.20
2019-02-12T12:26:19.245Z,11.24
2019-02-12T12:27:19.241Z,11.30
2019-02-12T12:28:19.234Z,11.35
2019-02-12T12:29:19.230Z,11.46
2019-02-12T12:30:19.226Z,11.46
2019-02-12T12:31:19.213Z,11.09
2019-02-12T12:32:19.207Z,10.75
2019-02-12T12:33:19.202Z,11.03
2019-02-12T12:34:19.197Z,11.09
2019-02-12T12:35:19.196Z,11.17
2019-02-12T12:36:19.190Z,11.28
2019-02-12T12:37:19.178Z,11.42
2019-02-12T12:38:19.172Z,11.33
2019-02-12T12:39:19.162Z,11.38
2019-02-12T12:40:19.155Z,11.54
2019-02-12T12:41:19.156Z,11.63
2019-02-12T12:42:19.149Z,11.70
2019-02-12T12:43:19.140Z,11.82
2019-02-12T12:44:19.131Z,11.90
2019-02-12T12:45:19.131Z,11.74
2019-02-12T12:46:19.123Z,11.78
2019-02-12T12:47:19.122Z,11.90
2019-02-12T12:48:19.116Z,11.81
2019-02-12T12:49:19.112Z,11.93
2019-02-12T12:50:19.103Z,11.97
2019-02-12T12:51:19.096Z,11.66
2019-02-12T12:52:19.086Z,11.35
2019-02-12T12:53:19.079Z,11.24
2019-02-12T12:54:19.072Z,11.19
2019-02-12T12:55:19.091Z,11.09
2019-02-12T12:56:19.074Z,11.16
2019-02-12T12:57:19.056Z,11.03
2019-02-12T12:58:19.049Z,11.11
2019-02-12T12:59:19.049Z,11.16
2019-02-12T13:00:19.041Z,11.21
2019-02-12T13:01:19.038Z,11.36
2019-02-12T13:02:19.031Z,11.53
2019-02-12T13:03:19.021Z,11.42
2019-02-12T13:04:19.016Z,11.67
2019-02-12T13:05:19.005Z,11.17
2019-02-12T13:06:19.000Z,11.46
2019-02-12T13:07:18.999Z,11.28
2019-02-12T13:08:18.994Z,11.30
2019-02-12T13:09:18.994Z,11.27
2019-02-12T13:10:18.983Z,11.28
2019-02-12T13:11:18.974Z,11.46
2019-02-12T13:12:18.966Z,11.42
2019-02-12T13:13:18.964Z,11.48
2019-02-12T13:14:18.959Z,11.44
2019-02-12T13:15:18.949Z,11.44